NWS Home NWS Lubbock West Texas Mesonet Three hour changes as of 0258 PM, Fri Apr 28, 2017

Latest   N   C   S   Daily Sum   3hrΔ   24hrΔ   Soil Data 
Site Map   24hr Precip   72hr Precip   Google Plot


Station Time of Last Temp Now Temp 3h ago Delta-T Dewpoint Now Dewpoint 3hr ago Delta-Td 3hr Press Change (mB)
Reese Center  02:50 PM 80.2 69.4 10.8 36.7 43.2 -6.6 -2.2
Abernathy  02:50 PM 79.3 69.1 10.2 40.2 43.1 -2.9 -1.7
Plainview  02:50 PM 77.7 67.9 9.8 41.9 41.9 0 -1.3
Tahoka  02:50 PM 81.4 75.1 6.3 38.2 43 -4.8 -1.7
Slaton  02:50 PM 80.2 72.4 7.8 41 41.9 -0.9 -1.8
Levelland  02:50 PM 81.6 70 11.6 34.1 37.2 -3.1 -2.3
Roaring Springs  02:50 PM 77.2 72.2 5 47.1 47.6 -0.5 -1.7
Floydada  02:50 PM 77 69.7 7.3 41.3 37 4.3 -1.7
Ralls  02:50 PM 80 72.7 7.4 40.1 38 2.1 -1.6
Brownfield  02:50 PM 81.1 74.2 6.9 36.9 40.5 -3.5 -2
Muleshoe  02:50 PM 77.8 70 7.9 34.7 31.2 3.5 -1.9
Morton  02:50 PM 81.1 69.4 11.8 33.2 29.8 3.4 -2.5
O'Donnell  02:50 PM 80.4 74.8 5.6 35.4 34.8 0.6 -1.8
Seagraves  02:50 PM 82.8 75 7.8 34.5 38.3 -3.8 -2.3
Amherst  02:50 PM 78.2 65.9 12.3 36.6 41.1 -4.4 -2.1
Plains  02:50 PM 80.2 68.7 11.5 34.4 32.3 2.1 -2.1
Lamesa  02:50 PM 82.6 77.1 5.5 39.6 40.1 -0.4 -2
Hart  02:50 PM 76.1 65.5 10.6 38.9 42.6 -3.7 -1.4
Friona  02:50 PM 73.1 66.4 6.7 36.3 38.5 -2.2 -1.7
Dimmitt  02:50 PM 72.4 64.8 7.6 40.6 46.2 -5.5 -1.4
Tulia  02:50 PM 75.3 66 9.3 40.7 44.6 -3.9 -1.2
Silverton  02:50 PM 73.4 64.9 8.6 45.2 41.4 3.8 -1.3
Post  02:50 PM 83 75.4 7.6 40.4 46.4 -6 -1.9
Seminole  02:50 PM 81.9 73.6 8.4 30.8 33.4 -2.6 -2.4
Gail  02:50 PM 82.6 77.2 5.5 42.4 45.4 -2.9 -2
White River Lake  02:50 PM 80.3 76.1 4.2 41.4 41.8 -0.4 -1.8
Graham  02:40 PM 81.5 71.5 10 38.5 44.9 -6.5 -1.8
Sundown  02:50 PM 80.6 69.1 11.5 36.8 36.6 0.2 -2
Anton  02:50 PM 81.2 68.8 12.4 38.8 40.8 -2 -2.2
Fluvanna  02:50 PM 81.7 75 6.7 36.3 43.1 -6.8 -1.9
Spur  02:50 PM 80.9 76.5 4.4 39.5 40.2 -0.7 -1.8
Northwest Lubbock  02:50 PM 82.8 71.6 11.2 36.7 40.4 -3.7 -1.9
Guthrie  02:50 PM 82.1 76.7 5.4 44.2 49.1 -4.8 -1.9
Clarendon  02:50 PM 73.3 66.5 6.8 43 44.3 -1.3 -1
Paducah  02:50 PM 81.5 75.9 5.6 44.2 45.9 -1.7 -1.7
Snyder  02:50 PM 87 77.8 9.3 40.9 46.8 -5.9 -2.2
Memphis  02:50 PM 75.1 66.5 8.6 44.6 51.9 -7.3 -1.4
Jayton  02:50 PM 82.9 76.6 6.3 41.6 46.1 -4.6 -2.2
Pampa  02:50 PM 71.7 65 6.8 46.6 44.6 2.1 -0.3
Aspermont  02:50 PM 87.5 79.4 8.1 41.1 46.5 -5.5 -1.9
Hereford  02:50 PM 71.9 65.2 6.8 37.9 43.5 -5.6 -1.8
Goodlett  02:50 PM 80 74 5.9 47.7 49 -1.2 -1.4
McLean  02:45 PM 70.7 64.8 5.9 43.3 45.8 -2.4 -0.8
Denver City  02:50 PM 79 72.5 6.5 32.4 31.6 0.8 -2.2
Lake Alan Henry  02:50 PM 83.7 76.9 6.8 38.4 45.6 -7.1 -2.1
Wolfforth  02:50 PM 81.9 73.8 8.1 35.3 39.2 -3.9 -1.9
Andrews  02:50 PM 84.1 77.6 6.5 34.9 32.7 2.2 -2.2
Turkey  02:50 PM 77.4 66.3 11.1 46.2 47.2 -1 -1.7
Childress  02:45 PM 78.5 70.3 8.2 45.3 51 -5.7 -1.5
Tatum  02:50 PM 80.2 70.5 9.7 33.2 31.8 1.3 -2.3
Northfield  02:50 PM 78.9 71.8 7.1 45.3 49.4 -4.1 -1.7
Dora  02:50 PM 78.1 70.4 7.7 32.7 27 5.7 -2.3
Northwest San Angelo  02:50 PM 91.1 79.2 11.8 43.6 61.7 -18.2 -2.5
Saint Lawrence  02:50 PM 87.5 80.9 6.6 35.2 42.6 -7.4 -2
Haskell  02:50 PM 85 76.4 8.6 43 46.6 -3.6 -2.2
Wall  02:50 PM 91.4 83.8 7.6 53 61.7 -8.7 -2.4
Seymour  02:50 PM 87.2 76.3 10.9 47.9 53.1 -5.2 -2.2
Knox City  02:50 PM 86.2 78.8 7.4 40.7 44.6 -3.9 -2
Guadalupe Mtns Park  02:50 PM 70.1 66.5 3.6 31.3 30.6 0.7 -1.7
Caprock Canyons   02:50 PM 75.4 64.8 10.7 47.1 45.9 1.2 -1.6
Odell  02:50 PM 81.8 78.1 3.8 53.2 49.7 3.5 -1.7
Coyanosa  02:50 PM 90.3 81.5 8.8 37.6 37.9 -0.4 -2.8
Big Lake  02:50 PM 88.1 82.5 5.6 45 54.1 -9.1 -2.2
Junction  02:50 PM 91 82.1 9 61.5 65.7 -4.1 -1.8
Hobbs  02:50 PM 80.7 74.1 6.6 32.1 29.4 2.7 -2.2
Canadian  02:50 PM 72 65.8 6.2 43.8 44.6 -0.8 -0.6
Palo Duro Canyon State Park Rim  02:50 PM 75.3 69.2 6.1 41 39.2 1.8 -1.2
Bootleg  02:50 PM 69.7 63.6 6.1 33.8 33.4 0.4 -1.8
Sterling City  02:50 PM 89.7 78.2 11.5 46 48.3 -2.3 -2.4
Mertzon  02:50 PM 92.9 82.9 10 49.2 59.1 -9.9 -2.4
Persimmon Gap  02:50 PM 93.7 86.1 7.6 31.3 36.2 -4.9 -2.9
Weinert  02:50 PM 86.3 76.6 9.7 48.5 52.4 -3.9 -2.2
Claude 12 Southwest  02:50 PM 72.9 67.4 5.5 42.7 41.1 1.6 -0.9
Amarillo 7 South Southeast  02:50 PM 72.3 66.3 6 39.7 40 -0.3 -1.2
Umbarger  02:50 PM 72.4 65.8 6.6 38.7 39.6 -0.9 -1.2
Lomax  02:50 PM 87.6 78.4 9.2 39.4 43.8 -4.3 -2
Amarillo 9 North Northeast  02:50 PM 71.7 64.9 6.8 39.5 40.8 -1.3 -1.2
Aiken 3 West Southwest  02:50 PM 79.7 68.9 10.8 41 39.9 1.1 -1.7
Sweetwater  02:50 PM 85.3 76.4 8.9 51.3 50.6 0.7 -2.3
Dozier  02:50 PM 74.7 65.8 8.9 49 49.2 -0.2 -1.5
Amarillo 15 North Northwest  02:50 PM 71.8 65.2 6.6 38.7 41.9 -3.2 -1.1
Menard  02:50 PM 89.7 83.8 5.8 57.7 65.3 -7.6 -1.2
Tarzan  02:50 PM 83.2 77.8 5.4 41.5 41.5 -0 -2
Goodnight  02:50 PM 73.2 69.6 3.7 41.2 43.1 -1.9 -0.7
Boys Ranch   02:50 PM 66.8 64.8 2.1 41.7 39.1 2.6 -0.9
Fort McKavett  02:50 PM 90.7 83.3 7.4 56.8 64.5 -7.7 -1.5
Fort Chadbourne  02:50 PM 81.2 75.2 6 62.2 62.8 -0.6 -2.2
Palo Duro Canyon State Park Floor  02:50 PM 77.4 70.6 6.8 40.8 44.1 -3.3 -1.3
Fort Lancaster  02:50 PM 92.5 80.9 11.5 51.2 62.5 -11.3 -2.6
Dell City 1N  02:50 PM 83.1 75.7 7.4 35.8 37.3 -1.5 -2.1
Clyde  02:50 PM 80.9 70.7 10.2 55.9 54.7 1.2 -1.8
Snyder SSW  02:50 PM 85.2 76.3 8.8 43.8 49.2 -5.5 -2.1
Panhandle  02:50 PM 69.5 65.7 3.9 40 39.1 0.9 -0.7
Vigo Park  02:50 PM 74.4 66.6 7.8 44.8 43.4 1.5 -1
Welch  02:50 PM 83.6 77.8 5.7 38.7 40.3 -1.6 -2
Throckmorton  02:50 PM 86 73.8 12.2 57.8 56.5 1.3 -1.8
Sierra Blanca  02:50 PM 80.2 75.6 4.6 32.4 35.1 -2.7 -1.9
Fort Lewis CO  02:50 PM 37.7 38.1 -0.3 27.8 14.1 13.7 -0.3
New Home  02:50 PM 80.1 73.8 6.3 38.4 43.1 -4.7 -2
McCamey  02:50 PM 91.3 84.9 6.4 41.5 42.1 -0.7 -2.3
Stamford  02:50 PM 86 76.7 9.3 50.5 52.8 -2.2 -2.4
Crowell  02:50 PM 80.7 77.1 3.6 50.6 51.5 -0.9 -1.5
Stinnett  02:50 PM 66.4 62.6 3.8 41.5 42 -0.5 0
Olton  02:50 PM 78.2 65.9 12.3 40.2 45.9 -5.7 -1.6

West Texas Mesonet Home   Site Map/Menu  NWS Lubbock Soil Data  Daily Summary Page  24hr Precip  72hr Precip  Google Plot